Main page
METAR-TAF:

METAR-TAF

Airports :

Roskilde Airport

Roskilde, Denmark

latitude: 55-35N, longitude: 012-08E, elevation: 44 m

Current weather observation

The report was made 15 minutes ago, at 17:50 UTC
Wind 2 kt from the South/Southwest
Temperature 19°C
Humidity 88%
Pressure 1013 hPa
Visibility 10 km or more

METAR: EKRK 231750Z AUTO 20002KT 9999 NCD 19/17 Q1013

Time: 20:05 (18:05 UTC)

Forecast

The report was made 49 minutes ago, at 17:16 UTC
Forecast valid from 23 at 18 UTC to 24 at 03 UTC
Wind 8 kt from the South/Southwest
Visibility 10 km or more
Broken clouds at a height of 3000 ft
Temporary
from 23 at 18 UTC to 24 at 03 UTC
Scattered clouds at a height of 2000 ft, Cumulonimbus.
rain showers,

TAF: EKRK 231716Z 2318/2403 20008KT 9999 BKN030 TEMPO 2318/2403 SHRA SCT020CB

Weather observations and forecasts of more than 4000 airports (METAR and TAF reports).

The available stations are represented by yellow and red dots on the map.

Hover mouse over dot to see the name of the station.

Then click to see weather observations and forecasts.

To change the map : click on the green buttons with a black cross to zoom in, on the green button with a dash to zoom out, or on the green arrows for adjacent maps.


METAR-TAF: